createdAt,value
2019-04-10T00:01:12.491Z,17.32
2019-04-10T00:06:18.683Z,25.10
2019-04-10T00:11:25.006Z,19.37
2019-04-10T00:16:31.984Z,17.40
2019-04-10T00:21:38.045Z,15.53
2019-04-10T00:26:44.314Z,16.23
2019-04-10T00:31:50.831Z,13.03
2019-04-10T00:36:57.523Z,18.87
2019-04-10T00:42:03.652Z,14.85
2019-04-10T00:47:10.830Z,15.38
2019-04-10T00:52:17.249Z,13.08
2019-04-10T00:57:23.680Z,17.75
2019-04-10T01:02:29.807Z,16.37
2019-04-10T01:07:39.792Z,16.52
2019-04-10T01:12:44.079Z,14.68
2019-04-10T01:17:50.699Z,21.50
2019-04-10T01:22:57.329Z,17.87
2019-04-10T01:28:04.602Z,13.70
2019-04-10T01:33:10.649Z,16.30
2019-04-10T01:38:17.587Z,16.42
2019-04-10T01:43:24.545Z,21.40
2019-04-10T01:48:30.826Z,20.43
2019-04-10T01:53:37.685Z,14.13
2019-04-10T01:58:45.990Z,16.20
2019-04-10T02:03:52.131Z,16.95
2019-04-10T02:08:58.417Z,14.58
2019-04-10T02:14:05.627Z,15.83
2019-04-10T02:19:12.241Z,12.37
2019-04-10T02:24:18.771Z,15.23
2019-04-10T02:29:25.957Z,15.95
2019-04-10T02:34:32.709Z,14.78
2019-04-10T02:39:44.751Z,16.23
2019-04-10T02:44:48.315Z,16.48
2019-04-10T02:49:56.551Z,13.95
2019-04-10T02:55:03.795Z,17.42
2019-04-10T03:00:12.780Z,12.25
2019-04-10T03:05:20.064Z,13.18
2019-04-10T03:10:50.533Z,16.00
2019-04-10T03:15:55.886Z,13.18
2019-04-10T03:21:02.723Z,18.62
2019-04-10T03:26:09.719Z,17.87
2019-04-10T03:31:16.021Z,16.12
2019-04-10T03:36:21.939Z,15.90
2019-04-10T03:41:28.246Z,12.20
2019-04-10T03:46:37.068Z,14.10
2019-04-10T03:51:43.006Z,12.13
2019-04-10T03:56:50.018Z,12.80
2019-04-10T04:01:56.242Z,17.95
2019-04-10T04:07:02.492Z,25.65
2019-04-10T04:12:08.651Z,27.37
2019-04-10T04:17:15.762Z,33.60
2019-04-10T04:22:22.927Z,36.05
2019-04-10T04:27:29.291Z,37.00
2019-04-10T04:32:35.475Z,50.83
2019-04-10T04:37:42.243Z,36.05
2019-04-10T04:42:49.371Z,38.40
2019-04-10T04:47:55.625Z,42.62
2019-04-10T04:53:02.345Z,37.48
2019-04-10T04:58:08.378Z,39.03
2019-04-10T05:03:14.317Z,45.38
2019-04-10T05:08:20.410Z,33.90
2019-04-10T05:13:26.759Z,46.88
2019-04-10T05:18:33.010Z,44.63
2019-04-10T05:23:39.132Z,47.17
2019-04-10T05:28:46.457Z,36.35
2019-04-10T05:33:53.278Z,43.60
2019-04-10T05:39:00.038Z,36.23
2019-04-10T05:44:07.224Z,33.95
2019-04-10T05:49:14.876Z,25.62
2019-04-10T05:54:21.194Z,30.25
2019-04-10T05:59:28.088Z,32.90
2019-04-10T06:04:35.647Z,29.18
2019-04-10T06:09:52.743Z,23.27
2019-04-10T06:14:50.488Z,20.43
2019-04-10T06:19:56.748Z,25.17
2019-04-10T06:25:03.963Z,21.25
2019-04-10T06:30:12.113Z,22.50
2019-04-10T06:35:18.447Z,23.00
2019-04-10T06:40:27.375Z,22.80
2019-04-10T06:45:32.216Z,37.28
2019-04-10T06:50:39.215Z,26.62
2019-04-10T06:55:46.855Z,29.42
2019-04-10T07:00:53.833Z,24.10
2019-04-10T07:06:09.935Z,27.90
2019-04-10T07:11:12.914Z,29.50
2019-04-10T07:16:17.966Z,22.22
2019-04-10T07:21:24.492Z,29.82
2019-04-10T07:26:37.801Z,28.05
2019-04-10T07:31:39.740Z,32.42
2019-04-10T07:36:46.866Z,43.63
2019-04-10T07:41:53.644Z,44.58
2019-04-10T07:47:00.855Z,48.23
2019-04-10T07:52:06.958Z,35.80
2019-04-10T07:57:13.851Z,49.58
2019-04-10T08:02:21.087Z,47.83
2019-04-10T08:07:31.740Z,38.58
2019-04-10T08:12:44.786Z,38.55
2019-04-10T08:17:44.448Z,40.03
2019-04-10T08:22:51.569Z,44.67
2019-04-10T08:27:58.510Z,48.65
2019-04-10T08:33:06.121Z,41.63
2019-04-10T08:38:13.108Z,41.20
2019-04-10T08:43:20.200Z,41.20
2019-04-10T08:48:29.024Z,47.08
2019-04-10T08:53:34.495Z,26.15
2019-04-10T08:58:41.271Z,22.55
2019-04-10T09:03:47.369Z,13.65
2019-04-10T09:08:53.585Z,18.02
2019-04-10T09:13:59.463Z,10.18
2019-04-10T09:19:05.768Z,12.75
2019-04-10T09:24:14.805Z,16.25
2019-04-10T09:29:21.883Z,12.75
2019-04-10T09:34:28.148Z,10.45
2019-04-10T09:39:35.630Z,15.70
2019-04-10T09:44:41.990Z,9.43
2019-04-10T09:49:49.296Z,11.45
2019-04-10T09:54:55.504Z,11.57
2019-04-10T10:00:01.546Z,16.00
2019-04-10T10:05:08.481Z,16.32
2019-04-10T10:10:15.050Z,15.45
2019-04-10T10:15:21.276Z,9.40
2019-04-10T10:20:27.901Z,10.45
2019-04-10T10:25:35.415Z,14.28
2019-04-10T10:30:41.808Z,9.38
2019-04-10T10:35:47.755Z,10.18
2019-04-10T10:40:54.850Z,10.20
2019-04-10T10:46:01.276Z,10.28
2019-04-10T10:51:08.677Z,8.23
2019-04-10T10:56:16.165Z,9.05
2019-04-10T11:01:22.457Z,9.78
2019-04-10T11:06:28.639Z,9.50
2019-04-10T11:11:35.032Z,12.55
2019-04-10T11:16:41.298Z,8.28
2019-04-10T11:21:47.602Z,9.90
2019-04-10T11:26:54.060Z,13.95
2019-04-10T11:32:00.233Z,10.68
2019-04-10T11:37:21.581Z,9.70
2019-04-10T11:42:14.659Z,8.40
2019-04-10T11:47:23.585Z,10.90
2019-04-10T11:52:36.234Z,9.38
2019-04-10T11:57:37.308Z,7.65
2019-04-10T12:02:47.032Z,9.98
2019-04-10T12:08:23.378Z,10.13
2019-04-10T12:12:59.851Z,11.38
2019-04-10T12:18:06.652Z,18.62
2019-04-10T12:23:12.707Z,8.20
2019-04-10T12:28:20.114Z,7.58
2019-04-10T12:33:26.226Z,6.83
2019-04-10T12:38:32.475Z,16.55
2019-04-10T12:43:38.975Z,7.37
2019-04-10T12:48:45.246Z,38.40
2019-04-10T12:53:51.989Z,5.85
2019-04-10T12:58:59.307Z,8.68
2019-04-10T13:04:05.744Z,10.25
2019-04-10T13:09:14.425Z,10.50
2019-04-10T13:14:20.655Z,7.97
2019-04-10T13:19:27.119Z,9.53
2019-04-10T13:24:33.425Z,10.10
2019-04-10T13:29:40.520Z,7.83
2019-04-10T13:34:46.819Z,7.47
2019-04-10T13:39:53.489Z,8.08
2019-04-10T13:44:59.652Z,8.75
2019-04-10T13:50:06.600Z,8.20
2019-04-10T13:55:12.725Z,8.73
2019-04-10T14:00:27.986Z,8.03
2019-04-10T14:05:34.408Z,8.08
2019-04-10T14:10:41.804Z,7.08
2019-04-10T14:15:48.493Z,5.28
2019-04-10T14:20:55.490Z,6.92
2019-04-10T14:26:43.740Z,6.78
2019-04-10T14:31:53.178Z,10.23
2019-04-10T14:36:59.435Z,6.45
2019-04-10T14:42:06.500Z,7.75
2019-04-10T14:47:13.482Z,8.13
2019-04-10T14:52:19.818Z,8.40
2019-04-10T14:57:26.590Z,7.70
2019-04-10T15:02:32.835Z,7.40
2019-04-10T15:07:39.426Z,7.58
2019-04-10T15:12:45.822Z,7.10
2019-04-10T15:17:51.916Z,7.95
2019-04-10T15:22:58.642Z,7.50
2019-04-10T15:28:04.926Z,8.50
2019-04-10T15:33:12.115Z,7.03
2019-04-10T15:38:18.337Z,6.72
2019-04-10T15:43:26.139Z,7.28
2019-04-10T15:48:33.614Z,7.45
2019-04-10T15:53:39.732Z,10.72
2019-04-10T15:58:45.914Z,8.18
2019-04-10T16:03:52.738Z,10.03
2019-04-10T16:08:59.182Z,13.48
2019-04-10T16:14:17.032Z,12.70
2019-04-10T16:19:36.691Z,18.10
2019-04-10T16:24:43.454Z,15.05
2019-04-10T16:29:49.574Z,21.25
2019-04-10T16:34:56.792Z,21.05
2019-04-10T16:40:04.398Z,24.18
2019-04-10T16:45:11.115Z,28.12
2019-04-10T16:50:17.583Z,23.45
2019-04-10T16:55:24.877Z,30.77
2019-04-10T17:00:31.259Z,26.82
2019-04-10T17:05:37.927Z,23.77
2019-04-10T17:10:44.851Z,24.92
2019-04-10T17:15:51.760Z,24.12
2019-04-10T17:20:58.012Z,26.20
2019-04-10T17:26:06.590Z,26.10
2019-04-10T17:31:14.259Z,23.40
2019-04-10T17:36:21.062Z,23.85
2019-04-10T17:41:27.989Z,24.45
2019-04-10T17:46:35.251Z,21.23
2019-04-10T17:51:41.944Z,15.38
2019-04-10T17:56:48.552Z,16.50
2019-04-10T18:01:56.947Z,17.50
2019-04-10T18:07:03.914Z,16.87
2019-04-10T18:12:10.602Z,13.58
2019-04-10T18:17:16.757Z,21.37
2019-04-10T18:22:22.788Z,18.77
2019-04-10T18:27:30.034Z,20.52
2019-04-10T18:32:36.656Z,20.97
2019-04-10T18:37:42.938Z,19.48
2019-04-10T18:42:49.243Z,21.35
2019-04-10T18:47:56.459Z,21.05
2019-04-10T18:53:03.744Z,23.98
2019-04-10T18:58:14.127Z,21.23
2019-04-10T19:03:28.061Z,20.00
2019-04-10T19:08:34.279Z,24.87
2019-04-10T19:13:41.125Z,25.50
2019-04-10T19:18:47.986Z,25.85
2019-04-10T19:23:55.490Z,30.10
2019-04-10T19:29:03.306Z,33.18
2019-04-10T19:34:09.441Z,27.20
2019-04-10T19:39:16.057Z,31.77
2019-04-10T19:44:23.107Z,31.35
2019-04-10T19:49:29.100Z,32.55
2019-04-10T19:54:35.402Z,35.98
2019-04-10T19:59:42.004Z,33.73
2019-04-10T20:04:48.572Z,35.35
2019-04-10T20:09:54.919Z,33.95
2019-04-10T20:15:00.948Z,34.53
2019-04-10T20:20:08.883Z,34.43
2019-04-10T20:25:16.402Z,38.42
2019-04-10T20:30:25.822Z,35.88
2019-04-10T20:35:32.117Z,33.65
2019-04-10T20:40:38.439Z,34.05
2019-04-10T20:45:45.457Z,33.45
2019-04-10T20:50:52.285Z,32.80
2019-04-10T20:55:58.343Z,35.85
2019-04-10T21:01:04.468Z,35.68
2019-04-10T21:06:11.303Z,40.67
2019-04-10T21:11:17.621Z,36.17
2019-04-10T21:16:23.780Z,33.53
2019-04-10T21:21:30.739Z,36.48
2019-04-10T21:26:36.797Z,36.90
2019-04-10T21:32:03.244Z,38.58
2019-04-10T21:37:10.185Z,31.40
2019-04-10T21:42:21.881Z,34.50
2019-04-10T21:47:25.600Z,33.90
2019-04-10T21:52:32.650Z,31.95
2019-04-10T21:57:38.697Z,34.45
2019-04-10T22:02:45.524Z,32.85
2019-04-10T22:08:17.972Z,26.82
2019-04-10T22:13:24.167Z,29.92
2019-04-10T22:18:30.587Z,30.05
2019-04-10T22:23:37.908Z,26.45
2019-04-10T22:28:45.420Z,29.50
2019-04-10T22:33:52.366Z,23.32
2019-04-10T22:38:58.413Z,29.07
2019-04-10T22:44:05.475Z,28.67
2019-04-10T22:49:12.414Z,29.02
2019-04-10T22:54:19.854Z,27.55
2019-04-10T22:59:26.289Z,31.30
2019-04-10T23:04:32.815Z,27.73
2019-04-10T23:09:40.234Z,27.30
2019-04-10T23:14:47.033Z,28.20
2019-04-10T23:19:54.199Z,26.07
2019-04-10T23:25:01.148Z,25.43
2019-04-10T23:30:12.846Z,30.55
2019-04-10T23:35:19.154Z,24.72
2019-04-10T23:40:25.306Z,27.62
2019-04-10T23:45:31.562Z,24.87
2019-04-10T23:50:38.608Z,27.73
2019-04-10T23:55:44.815Z,31.48
